sensor_id;sensor_type;location;lat;lon;timestamp;P1;durP1;ratioP1;P2;durP2;ratioP2
84946;SDS011;75241;51.692;5.196;2024-01-30T00:01:21;17.33;;;11.25;;
84946;SDS011;75241;51.692;5.196;2024-01-30T00:03:47;17.75;;;13.25;;
84946;SDS011;75241;51.692;5.196;2024-01-30T00:06:12;17.85;;;12.88;;
84946;SDS011;75241;51.692;5.196;2024-01-30T00:08:38;19.55;;;12.77;;
84946;SDS011;75241;51.692;5.196;2024-01-30T00:11:03;19.45;;;12.63;;
84946;SDS011;75241;51.692;5.196;2024-01-30T00:13:29;18.63;;;12.85;;
84946;SDS011;75241;51.692;5.196;2024-01-30T00:15:54;16.08;;;11.73;;
84946;SDS011;75241;51.692;5.196;2024-01-30T00:18:19;19.85;;;11.65;;
84946;SDS011;75241;51.692;5.196;2024-01-30T00:20:45;19.90;;;12.93;;
84946;SDS011;75241;51.692;5.196;2024-01-30T00:23:11;17.15;;;11.27;;
84946;SDS011;75241;51.692;5.196;2024-01-30T00:25:36;23.75;;;13.00;;
84946;SDS011;75241;51.692;5.196;2024-01-30T00:28:02;20.33;;;13.65;;
84946;SDS011;75241;51.692;5.196;2024-01-30T00:30:27;21.00;;;13.82;;
84946;SDS011;75241;51.692;5.196;2024-01-30T00:32:53;19.35;;;13.05;;
84946;SDS011;75241;51.692;5.196;2024-01-30T00:35:19;20.00;;;13.07;;
84946;SDS011;75241;51.692;5.196;2024-01-30T00:37:45;19.65;;;12.00;;
84946;SDS011;75241;51.692;5.196;2024-01-30T00:40:10;23.65;;;13.88;;
84946;SDS011;75241;51.692;5.196;2024-01-30T00:42:41;18.20;;;12.13;;
84946;SDS011;75241;51.692;5.196;2024-01-30T00:45:11;19.23;;;12.68;;
84946;SDS011;75241;51.692;5.196;2024-01-30T00:47:37;22.20;;;12.38;;
84946;SDS011;75241;51.692;5.196;2024-01-30T00:50:03;18.10;;;12.55;;
84946;SDS011;75241;51.692;5.196;2024-01-30T00:52:28;18.65;;;13.00;;
84946;SDS011;75241;51.692;5.196;2024-01-30T00:54:54;19.90;;;12.48;;
84946;SDS011;75241;51.692;5.196;2024-01-30T00:57:19;18.27;;;12.27;;
84946;SDS011;75241;51.692;5.196;2024-01-30T00:59:45;21.75;;;13.93;;
84946;SDS011;75241;51.692;5.196;2024-01-30T01:02:10;21.17;;;13.75;;
84946;SDS011;75241;51.692;5.196;2024-01-30T01:04:35;24.73;;;14.93;;
84946;SDS011;75241;51.692;5.196;2024-01-30T01:07:01;21.92;;;13.43;;
84946;SDS011;75241;51.692;5.196;2024-01-30T01:09:26;19.38;;;13.30;;
84946;SDS011;75241;51.692;5.196;2024-01-30T01:11:52;21.58;;;12.82;;
84946;SDS011;75241;51.692;5.196;2024-01-30T01:14:17;19.30;;;13.60;;
84946;SDS011;75241;51.692;5.196;2024-01-30T01:16:42;21.30;;;13.68;;
84946;SDS011;75241;51.692;5.196;2024-01-30T01:19:08;19.50;;;12.15;;
84946;SDS011;75241;51.692;5.196;2024-01-30T01:21:33;21.73;;;13.57;;
84946;SDS011;75241;51.692;5.196;2024-01-30T01:23:59;19.52;;;13.45;;
84946;SDS011;75241;51.692;5.196;2024-01-30T01:26:24;19.27;;;12.70;;
84946;SDS011;75241;51.692;5.196;2024-01-30T01:28:49;19.92;;;12.75;;
84946;SDS011;75241;51.692;5.196;2024-01-30T01:31:15;20.80;;;12.40;;
84946;SDS011;75241;51.692;5.196;2024-01-30T01:33:40;18.65;;;13.30;;
84946;SDS011;75241;51.692;5.196;2024-01-30T01:36:06;22.33;;;12.48;;
84946;SDS011;75241;51.692;5.196;2024-01-30T01:38:31;21.88;;;13.15;;
84946;SDS011;75241;51.692;5.196;2024-01-30T01:40:57;16.98;;;12.88;;
84946;SDS011;75241;51.692;5.196;2024-01-30T01:43:22;20.00;;;12.80;;
84946;SDS011;75241;51.692;5.196;2024-01-30T01:45:47;19.63;;;13.88;;
84946;SDS011;75241;51.692;5.196;2024-01-30T01:48:13;18.48;;;13.32;;
84946;SDS011;75241;51.692;5.196;2024-01-30T01:50:39;21.70;;;14.55;;
84946;SDS011;75241;51.692;5.196;2024-01-30T01:53:07;21.73;;;13.60;;
84946;SDS011;75241;51.692;5.196;2024-01-30T01:55:33;21.17;;;13.30;;
84946;SDS011;75241;51.692;5.196;2024-01-30T02:00:26;17.05;;;11.18;;
84946;SDS011;75241;51.692;5.196;2024-01-30T02:02:52;19.77;;;13.15;;
84946;SDS011;75241;51.692;5.196;2024-01-30T02:07:45;21.15;;;11.77;;
84946;SDS011;75241;51.692;5.196;2024-01-30T02:10:10;22.23;;;13.75;;
84946;SDS011;75241;51.692;5.196;2024-01-30T02:12:36;18.10;;;12.15;;
84946;SDS011;75241;51.692;5.196;2024-01-30T02:15:01;18.15;;;12.27;;
84946;SDS011;75241;51.692;5.196;2024-01-30T02:17:27;23.27;;;13.73;;
84946;SDS011;75241;51.692;5.196;2024-01-30T02:19:52;20.27;;;12.23;;
84946;SDS011;75241;51.692;5.196;2024-01-30T02:22:17;19.15;;;12.00;;
84946;SDS011;75241;51.692;5.196;2024-01-30T02:24:44;19.13;;;12.40;;
84946;SDS011;75241;51.692;5.196;2024-01-30T02:27:09;22.20;;;12.48;;
84946;SDS011;75241;51.692;5.196;2024-01-30T02:29:35;22.00;;;13.52;;
84946;SDS011;75241;51.692;5.196;2024-01-30T02:32:03;21.00;;;12.82;;
84946;SDS011;75241;51.692;5.196;2024-01-30T02:34:29;21.45;;;13.25;;
84946;SDS011;75241;51.692;5.196;2024-01-30T02:36:54;19.35;;;12.93;;
84946;SDS011;75241;51.692;5.196;2024-01-30T02:39:20;21.33;;;14.10;;
84946;SDS011;75241;51.692;5.196;2024-01-30T02:41:45;19.75;;;12.38;;
84946;SDS011;75241;51.692;5.196;2024-01-30T02:44:10;17.10;;;11.98;;
84946;SDS011;75241;51.692;5.196;2024-01-30T02:46:36;21.20;;;11.82;;
84946;SDS011;75241;51.692;5.196;2024-01-30T02:49:01;20.77;;;12.52;;
84946;SDS011;75241;51.692;5.196;2024-01-30T02:51:27;19.10;;;12.77;;
84946;SDS011;75241;51.692;5.196;2024-01-30T02:53:52;22.38;;;12.75;;
84946;SDS011;75241;51.692;5.196;2024-01-30T02:56:17;22.63;;;13.68;;
84946;SDS011;75241;51.692;5.196;2024-01-30T02:58:43;19.80;;;12.88;;
84946;SDS011;75241;51.692;5.196;2024-01-30T03:01:08;20.70;;;12.38;;
84946;SDS011;75241;51.692;5.196;2024-01-30T03:03:34;20.65;;;13.13;;
84946;SDS011;75241;51.692;5.196;2024-01-30T03:06:01;18.98;;;12.52;;
84946;SDS011;75241;51.692;5.196;2024-01-30T03:08:27;16.35;;;11.75;;
84946;SDS011;75241;51.692;5.196;2024-01-30T03:10:52;18.90;;;11.38;;
84946;SDS011;75241;51.692;5.196;2024-01-30T03:13:17;17.00;;;10.73;;
84946;SDS011;75241;51.692;5.196;2024-01-30T03:15:43;19.55;;;11.43;;
84946;SDS011;75241;51.692;5.196;2024-01-30T03:18:08;19.00;;;11.55;;
84946;SDS011;75241;51.692;5.196;2024-01-30T03:20:34;18.17;;;12.30;;
84946;SDS011;75241;51.692;5.196;2024-01-30T03:23:00;20.10;;;12.27;;
84946;SDS011;75241;51.692;5.196;2024-01-30T03:25:26;15.30;;;10.63;;
84946;SDS011;75241;51.692;5.196;2024-01-30T03:27:51;14.90;;;10.15;;
84946;SDS011;75241;51.692;5.196;2024-01-30T03:30:17;18.05;;;11.48;;
84946;SDS011;75241;51.692;5.196;2024-01-30T03:32:43;14.05;;;10.35;;
84946;SDS011;75241;51.692;5.196;2024-01-30T03:35:09;16.38;;;11.50;;
84946;SDS011;75241;51.692;5.196;2024-01-30T03:37:34;15.05;;;10.63;;
84946;SDS011;75241;51.692;5.196;2024-01-30T03:40:00;18.60;;;10.77;;
84946;SDS011;75241;51.692;5.196;2024-01-30T03:42:26;15.95;;;10.48;;
84946;SDS011;75241;51.692;5.196;2024-01-30T03:44:52;15.05;;;9.70;;
84946;SDS011;75241;51.692;5.196;2024-01-30T03:47:18;15.25;;;10.48;;
84946;SDS011;75241;51.692;5.196;2024-01-30T03:49:44;12.88;;;9.57;;
84946;SDS011;75241;51.692;5.196;2024-01-30T03:52:10;15.00;;;9.60;;
84946;SDS011;75241;51.692;5.196;2024-01-30T03:54:35;13.68;;;8.50;;
84946;SDS011;75241;51.692;5.196;2024-01-30T03:57:01;14.23;;;9.95;;
84946;SDS011;75241;51.692;5.196;2024-01-30T03:59:27;17.20;;;10.60;;
84946;SDS011;75241;51.692;5.196;2024-01-30T04:01:52;12.95;;;9.20;;
84946;SDS011;75241;51.692;5.196;2024-01-30T04:04:18;14.85;;;9.75;;
84946;SDS011;75241;51.692;5.196;2024-01-30T04:06:44;13.70;;;8.95;;
84946;SDS011;75241;51.692;5.196;2024-01-30T04:09:10;12.82;;;9.30;;
84946;SDS011;75241;51.692;5.196;2024-01-30T04:11:36;12.68;;;9.88;;
84946;SDS011;75241;51.692;5.196;2024-01-30T04:14:01;17.02;;;10.98;;
84946;SDS011;75241;51.692;5.196;2024-01-30T04:16:27;13.82;;;9.50;;
84946;SDS011;75241;51.692;5.196;2024-01-30T04:18:52;12.45;;;8.38;;
84946;SDS011;75241;51.692;5.196;2024-01-30T04:21:18;16.05;;;10.65;;
84946;SDS011;75241;51.692;5.196;2024-01-30T04:23:43;14.02;;;9.05;;
84946;SDS011;75241;51.692;5.196;2024-01-30T04:26:09;13.65;;;8.73;;
84946;SDS011;75241;51.692;5.196;2024-01-30T04:28:34;13.55;;;9.63;;
84946;SDS011;75241;51.692;5.196;2024-01-30T04:31:00;10.85;;;7.85;;
84946;SDS011;75241;51.692;5.196;2024-01-30T04:33:25;11.40;;;8.63;;
84946;SDS011;75241;51.692;5.196;2024-01-30T04:35:50;14.10;;;8.40;;
84946;SDS011;75241;51.692;5.196;2024-01-30T04:38:20;12.27;;;8.68;;
84946;SDS011;75241;51.692;5.196;2024-01-30T04:40:45;12.30;;;8.52;;
84946;SDS011;75241;51.692;5.196;2024-01-30T04:43:10;12.43;;;8.85;;
84946;SDS011;75241;51.692;5.196;2024-01-30T04:45:36;11.50;;;8.40;;
84946;SDS011;75241;51.692;5.196;2024-01-30T04:48:01;13.65;;;8.73;;
84946;SDS011;75241;51.692;5.196;2024-01-30T04:50:27;15.45;;;9.05;;
84946;SDS011;75241;51.692;5.196;2024-01-30T04:52:52;12.30;;;7.72;;
84946;SDS011;75241;51.692;5.196;2024-01-30T04:55:18;11.18;;;7.45;;
84946;SDS011;75241;51.692;5.196;2024-01-30T04:57:46;11.50;;;7.47;;
84946;SDS011;75241;51.692;5.196;2024-01-30T05:00:11;11.52;;;8.48;;
84946;SDS011;75241;51.692;5.196;2024-01-30T05:02:37;11.20;;;7.47;;
84946;SDS011;75241;51.692;5.196;2024-01-30T05:05:03;11.65;;;8.07;;
84946;SDS011;75241;51.692;5.196;2024-01-30T05:07:29;14.70;;;8.30;;
84946;SDS011;75241;51.692;5.196;2024-01-30T05:09:54;12.85;;;8.30;;
84946;SDS011;75241;51.692;5.196;2024-01-30T05:12:20;11.63;;;8.40;;
84946;SDS011;75241;51.692;5.196;2024-01-30T05:14:45;10.95;;;7.93;;
84946;SDS011;75241;51.692;5.196;2024-01-30T05:17:11;11.15;;;7.80;;
84946;SDS011;75241;51.692;5.196;2024-01-30T05:19:37;15.77;;;9.88;;
84946;SDS011;75241;51.692;5.196;2024-01-30T05:22:03;11.55;;;7.93;;
84946;SDS011;75241;51.692;5.196;2024-01-30T05:24:29;12.85;;;7.93;;
84946;SDS011;75241;51.692;5.196;2024-01-30T05:26:54;13.82;;;8.07;;
84946;SDS011;75241;51.692;5.196;2024-01-30T05:29:20;12.38;;;8.02;;
84946;SDS011;75241;51.692;5.196;2024-01-30T05:31:45;13.13;;;7.93;;
84946;SDS011;75241;51.692;5.196;2024-01-30T05:34:11;14.65;;;8.05;;
84946;SDS011;75241;51.692;5.196;2024-01-30T05:36:36;13.90;;;8.32;;
84946;SDS011;75241;51.692;5.196;2024-01-30T05:39:01;12.80;;;8.88;;
84946;SDS011;75241;51.692;5.196;2024-01-30T05:41:27;13.23;;;7.70;;
84946;SDS011;75241;51.692;5.196;2024-01-30T05:43:53;11.38;;;8.27;;
84946;SDS011;75241;51.692;5.196;2024-01-30T05:46:18;12.13;;;9.13;;
84946;SDS011;75241;51.692;5.196;2024-01-30T05:48:43;10.45;;;7.20;;
84946;SDS011;75241;51.692;5.196;2024-01-30T05:51:09;14.07;;;8.82;;
84946;SDS011;75241;51.692;5.196;2024-01-30T05:53:34;11.68;;;7.95;;
84946;SDS011;75241;51.692;5.196;2024-01-30T05:56:03;12.68;;;7.80;;
84946;SDS011;75241;51.692;5.196;2024-01-30T05:58:29;12.82;;;7.72;;
84946;SDS011;75241;51.692;5.196;2024-01-30T06:03:21;10.40;;;8.20;;
84946;SDS011;75241;51.692;5.196;2024-01-30T06:05:46;13.48;;;8.15;;
84946;SDS011;75241;51.692;5.196;2024-01-30T06:08:12;12.70;;;8.23;;
84946;SDS011;75241;51.692;5.196;2024-01-30T06:10:37;13.07;;;8.05;;
84946;SDS011;75241;51.692;5.196;2024-01-30T06:13:03;13.60;;;8.20;;
84946;SDS011;75241;51.692;5.196;2024-01-30T06:15:31;10.30;;;7.15;;
84946;SDS011;75241;51.692;5.196;2024-01-30T06:17:57;13.13;;;8.38;;
84946;SDS011;75241;51.692;5.196;2024-01-30T06:20:23;12.18;;;7.95;;
84946;SDS011;75241;51.692;5.196;2024-01-30T06:22:49;10.30;;;7.68;;
84946;SDS011;75241;51.692;5.196;2024-01-30T06:25:14;10.27;;;7.80;;
84946;SDS011;75241;51.692;5.196;2024-01-30T06:27:39;13.10;;;7.82;;
84946;SDS011;75241;51.692;5.196;2024-01-30T06:30:05;11.63;;;7.82;;
84946;SDS011;75241;51.692;5.196;2024-01-30T06:32:31;12.45;;;7.57;;
84946;SDS011;75241;51.692;5.196;2024-01-30T06:34:59;10.65;;;7.18;;
84946;SDS011;75241;51.692;5.196;2024-01-30T06:37:25;13.68;;;7.93;;
84946;SDS011;75241;51.692;5.196;2024-01-30T06:39:51;11.05;;;7.45;;
84946;SDS011;75241;51.692;5.196;2024-01-30T06:42:17;13.05;;;7.78;;
84946;SDS011;75241;51.692;5.196;2024-01-30T06:44:43;12.32;;;7.60;;
84946;SDS011;75241;51.692;5.196;2024-01-30T06:47:08;9.45;;;7.47;;
84946;SDS011;75241;51.692;5.196;2024-01-30T06:49:34;12.90;;;7.80;;
84946;SDS011;75241;51.692;5.196;2024-01-30T06:52:00;11.73;;;7.15;;
84946;SDS011;75241;51.692;5.196;2024-01-30T06:54:25;14.80;;;8.35;;
84946;SDS011;75241;51.692;5.196;2024-01-30T06:56:50;12.50;;;8.27;;
84946;SDS011;75241;51.692;5.196;2024-01-30T06:59:16;11.00;;;7.43;;
84946;SDS011;75241;51.692;5.196;2024-01-30T07:01:41;11.90;;;7.40;;
84946;SDS011;75241;51.692;5.196;2024-01-30T07:04:07;12.63;;;6.80;;
84946;SDS011;75241;51.692;5.196;2024-01-30T07:06:32;13.48;;;7.63;;
84946;SDS011;75241;51.692;5.196;2024-01-30T07:08:57;11.48;;;7.47;;
84946;SDS011;75241;51.692;5.196;2024-01-30T07:11:23;12.60;;;8.15;;
84946;SDS011;75241;51.692;5.196;2024-01-30T07:13:50;13.73;;;8.05;;
84946;SDS011;75241;51.692;5.196;2024-01-30T07:16:16;10.10;;;7.07;;
84946;SDS011;75241;51.692;5.196;2024-01-30T07:18:41;12.95;;;8.18;;
84946;SDS011;75241;51.692;5.196;2024-01-30T07:21:07;13.15;;;7.53;;
84946;SDS011;75241;51.692;5.196;2024-01-30T07:23:32;13.25;;;7.97;;
84946;SDS011;75241;51.692;5.196;2024-01-30T07:26:00;10.50;;;7.50;;
84946;SDS011;75241;51.692;5.196;2024-01-30T07:28:26;14.57;;;7.72;;
84946;SDS011;75241;51.692;5.196;2024-01-30T07:30:51;11.35;;;7.30;;
84946;SDS011;75241;51.692;5.196;2024-01-30T07:33:17;12.88;;;7.00;;
84946;SDS011;75241;51.692;5.196;2024-01-30T07:35:42;13.45;;;8.23;;
84946;SDS011;75241;51.692;5.196;2024-01-30T07:38:08;11.38;;;7.68;;
84946;SDS011;75241;51.692;5.196;2024-01-30T07:40:33;14.45;;;8.10;;
84946;SDS011;75241;51.692;5.196;2024-01-30T07:42:59;11.60;;;7.95;;
84946;SDS011;75241;51.692;5.196;2024-01-30T07:45:25;12.23;;;7.43;;
84946;SDS011;75241;51.692;5.196;2024-01-30T07:47:52;14.75;;;8.25;;
84946;SDS011;75241;51.692;5.196;2024-01-30T07:50:18;11.82;;;7.32;;
84946;SDS011;75241;51.692;5.196;2024-01-30T07:52:44;11.18;;;6.85;;
84946;SDS011;75241;51.692;5.196;2024-01-30T07:55:09;14.30;;;8.10;;
84946;SDS011;75241;51.692;5.196;2024-01-30T07:57:35;12.25;;;7.25;;
84946;SDS011;75241;51.692;5.196;2024-01-30T08:00:00;12.48;;;7.88;;
84946;SDS011;75241;51.692;5.196;2024-01-30T08:02:28;12.52;;;7.72;;
84946;SDS011;75241;51.692;5.196;2024-01-30T08:04:53;12.50;;;8.52;;
84946;SDS011;75241;51.692;5.196;2024-01-30T08:07:19;11.10;;;7.63;;
84946;SDS011;75241;51.692;5.196;2024-01-30T08:09:46;14.75;;;7.80;;
84946;SDS011;75241;51.692;5.196;2024-01-30T08:12:11;11.70;;;8.25;;
84946;SDS011;75241;51.692;5.196;2024-01-30T08:14:37;14.52;;;7.57;;
84946;SDS011;75241;51.692;5.196;2024-01-30T08:17:03;15.88;;;8.23;;
84946;SDS011;75241;51.692;5.196;2024-01-30T08:19:29;17.60;;;7.57;;
84946;SDS011;75241;51.692;5.196;2024-01-30T08:21:54;19.38;;;8.25;;
84946;SDS011;75241;51.692;5.196;2024-01-30T08:24:20;10.73;;;7.00;;
84946;SDS011;75241;51.692;5.196;2024-01-30T08:26:47;11.65;;;7.50;;
84946;SDS011;75241;51.692;5.196;2024-01-30T08:29:12;14.43;;;7.95;;
84946;SDS011;75241;51.692;5.196;2024-01-30T08:31:38;11.57;;;7.75;;
84946;SDS011;75241;51.692;5.196;2024-01-30T08:34:03;12.07;;;8.27;;
84946;SDS011;75241;51.692;5.196;2024-01-30T08:36:29;11.75;;;7.20;;
84946;SDS011;75241;51.692;5.196;2024-01-30T08:38:54;14.63;;;7.55;;
84946;SDS011;75241;51.692;5.196;2024-01-30T08:41:20;12.05;;;7.38;;
84946;SDS011;75241;51.692;5.196;2024-01-30T08:43:45;13.23;;;7.57;;
84946;SDS011;75241;51.692;5.196;2024-01-30T08:46:11;14.38;;;8.38;;
84946;SDS011;75241;51.692;5.196;2024-01-30T08:48:36;12.10;;;7.55;;
84946;SDS011;75241;51.692;5.196;2024-01-30T08:51:02;13.15;;;7.57;;
84946;SDS011;75241;51.692;5.196;2024-01-30T08:53:28;14.63;;;7.55;;
84946;SDS011;75241;51.692;5.196;2024-01-30T08:55:53;11.68;;;7.60;;
84946;SDS011;75241;51.692;5.196;2024-01-30T08:58:19;12.75;;;7.72;;
84946;SDS011;75241;51.692;5.196;2024-01-30T09:00:44;12.35;;;7.50;;
84946;SDS011;75241;51.692;5.196;2024-01-30T09:03:10;11.60;;;7.32;;
84946;SDS011;75241;51.692;5.196;2024-01-30T09:05:35;9.95;;;6.75;;
84946;SDS011;75241;51.692;5.196;2024-01-30T09:08:00;13.60;;;7.40;;
84946;SDS011;75241;51.692;5.196;2024-01-30T09:10:26;11.80;;;6.97;;
84946;SDS011;75241;51.692;5.196;2024-01-30T09:12:54;11.20;;;8.00;;
84946;SDS011;75241;51.692;5.196;2024-01-30T09:15:20;10.52;;;7.50;;
84946;SDS011;75241;51.692;5.196;2024-01-30T09:17:45;13.88;;;8.18;;
84946;SDS011;75241;51.692;5.196;2024-01-30T09:20:11;13.23;;;7.05;;
84946;SDS011;75241;51.692;5.196;2024-01-30T09:22:36;15.25;;;7.60;;
84946;SDS011;75241;51.692;5.196;2024-01-30T09:25:02;11.52;;;7.38;;
84946;SDS011;75241;51.692;5.196;2024-01-30T09:27:27;12.63;;;7.63;;
84946;SDS011;75241;51.692;5.196;2024-01-30T09:29:53;14.38;;;8.38;;
84946;SDS011;75241;51.692;5.196;2024-01-30T09:32:18;15.10;;;8.27;;
84946;SDS011;75241;51.692;5.196;2024-01-30T09:34:43;14.80;;;7.32;;
84946;SDS011;75241;51.692;5.196;2024-01-30T09:37:09;11.70;;;8.15;;
84946;SDS011;75241;51.692;5.196;2024-01-30T09:39:34;12.57;;;6.50;;
84946;SDS011;75241;51.692;5.196;2024-01-30T09:44:51;13.82;;;7.22;;
84946;SDS011;75241;51.692;5.196;2024-01-30T09:47:17;10.30;;;7.57;;
84946;SDS011;75241;51.692;5.196;2024-01-30T09:49:43;14.07;;;7.65;;
84946;SDS011;75241;51.692;5.196;2024-01-30T09:52:08;11.48;;;7.20;;
84946;SDS011;75241;51.692;5.196;2024-01-30T09:54:34;11.05;;;7.63;;
84946;SDS011;75241;51.692;5.196;2024-01-30T09:57:01;11.43;;;7.95;;
84946;SDS011;75241;51.692;5.196;2024-01-30T09:59:26;12.02;;;8.07;;
84946;SDS011;75241;51.692;5.196;2024-01-30T10:01:51;13.13;;;7.53;;
84946;SDS011;75241;51.692;5.196;2024-01-30T10:04:17;13.27;;;7.70;;
84946;SDS011;75241;51.692;5.196;2024-01-30T10:06:43;11.57;;;8.48;;
84946;SDS011;75241;51.692;5.196;2024-01-30T10:09:09;12.25;;;8.23;;
84946;SDS011;75241;51.692;5.196;2024-01-30T10:11:34;14.65;;;8.55;;
84946;SDS011;75241;51.692;5.196;2024-01-30T10:14:01;13.82;;;7.85;;
84946;SDS011;75241;51.692;5.196;2024-01-30T10:16:26;14.98;;;8.57;;
84946;SDS011;75241;51.692;5.196;2024-01-30T10:18:52;15.48;;;7.07;;
84946;SDS011;75241;51.692;5.196;2024-01-30T10:21:17;14.48;;;9.25;;
84946;SDS011;75241;51.692;5.196;2024-01-30T10:23:43;12.30;;;8.68;;
84946;SDS011;75241;51.692;5.196;2024-01-30T10:26:12;12.13;;;8.05;;
84946;SDS011;75241;51.692;5.196;2024-01-30T10:28:37;11.98;;;7.97;;
84946;SDS011;75241;51.692;5.196;2024-01-30T10:31:03;11.25;;;7.07;;
84946;SDS011;75241;51.692;5.196;2024-01-30T10:33:29;12.32;;;7.63;;
84946;SDS011;75241;51.692;5.196;2024-01-30T10:38:25;14.80;;;8.27;;
84946;SDS011;75241;51.692;5.196;2024-01-30T10:40:54;16.45;;;8.43;;
84946;SDS011;75241;51.692;5.196;2024-01-30T10:43:22;14.10;;;7.32;;
84946;SDS011;75241;51.692;5.196;2024-01-30T10:45:49;12.57;;;7.45;;
84946;SDS011;75241;51.692;5.196;2024-01-30T10:48:18;9.77;;;7.63;;
84946;SDS011;75241;51.692;5.196;2024-01-30T10:50:47;10.02;;;7.80;;
84946;SDS011;75241;51.692;5.196;2024-01-30T10:53:13;13.15;;;8.32;;
84946;SDS011;75241;51.692;5.196;2024-01-30T10:55:41;13.93;;;7.63;;
84946;SDS011;75241;51.692;5.196;2024-01-30T10:58:07;12.43;;;7.45;;
84946;SDS011;75241;51.692;5.196;2024-01-30T11:00:33;11.65;;;7.50;;
84946;SDS011;75241;51.692;5.196;2024-01-30T11:02:59;11.40;;;8.35;;
84946;SDS011;75241;51.692;5.196;2024-01-30T11:05:25;9.65;;;7.57;;
84946;SDS011;75241;51.692;5.196;2024-01-30T11:07:52;10.52;;;8.07;;
84946;SDS011;75241;51.692;5.196;2024-01-30T11:10:18;10.77;;;8.18;;
84946;SDS011;75241;51.692;5.196;2024-01-30T11:12:45;12.35;;;7.63;;
84946;SDS011;75241;51.692;5.196;2024-01-30T11:15:18;9.05;;;6.32;;
84946;SDS011;75241;51.692;5.196;2024-01-30T11:20:10;8.70;;;5.82;;
84946;SDS011;75241;51.692;5.196;2024-01-30T11:22:46;8.35;;;4.63;;
84946;SDS011;75241;51.692;5.196;2024-01-30T11:25:13;9.27;;;5.03;;
84946;SDS011;75241;51.692;5.196;2024-01-30T11:30:06;8.55;;;5.20;;
84946;SDS011;75241;51.692;5.196;2024-01-30T11:34:58;6.38;;;4.63;;
84946;SDS011;75241;51.692;5.196;2024-01-30T11:37:24;8.57;;;4.03;;
84946;SDS011;75241;51.692;5.196;2024-01-30T11:39:53;8.48;;;3.45;;
84946;SDS011;75241;51.692;5.196;2024-01-30T11:42:19;5.60;;;3.10;;
84946;SDS011;75241;51.692;5.196;2024-01-30T11:44:48;6.25;;;2.42;;
84946;SDS011;75241;51.692;5.196;2024-01-30T11:47:14;4.75;;;2.90;;
84946;SDS011;75241;51.692;5.196;2024-01-30T11:49:39;8.30;;;3.05;;
84946;SDS011;75241;51.692;5.196;2024-01-30T11:52:05;3.88;;;2.10;;
84946;SDS011;75241;51.692;5.196;2024-01-30T11:54:30;5.97;;;2.22;;
84946;SDS011;75241;51.692;5.196;2024-01-30T11:56:56;3.38;;;1.90;;
84946;SDS011;75241;51.692;5.196;2024-01-30T11:59:22;5.25;;;1.85;;
84946;SDS011;75241;51.692;5.196;2024-01-30T12:01:47;4.88;;;2.17;;
84946;SDS011;75241;51.692;5.196;2024-01-30T12:04:13;5.60;;;2.00;;
84946;SDS011;75241;51.692;5.196;2024-01-30T12:06:38;3.35;;;1.83;;
84946;SDS011;75241;51.692;5.196;2024-01-30T12:09:04;3.22;;;1.52;;
84946;SDS011;75241;51.692;5.196;2024-01-30T12:11:30;6.95;;;2.28;;
84946;SDS011;75241;51.692;5.196;2024-01-30T12:13:56;4.35;;;1.83;;
84946;SDS011;75241;51.692;5.196;2024-01-30T12:16:22;3.15;;;1.60;;
84946;SDS011;75241;51.692;5.196;2024-01-30T12:18:47;6.70;;;1.77;;
84946;SDS011;75241;51.692;5.196;2024-01-30T12:21:16;4.03;;;1.50;;
84946;SDS011;75241;51.692;5.196;2024-01-30T12:23:42;4.55;;;1.35;;
84946;SDS011;75241;51.692;5.196;2024-01-30T12:26:08;2.92;;;1.67;;
84946;SDS011;75241;51.692;5.196;2024-01-30T12:28:35;8.18;;;1.10;;
84946;SDS011;75241;51.692;5.196;2024-01-30T12:31:01;3.45;;;1.33;;
84946;SDS011;75241;51.692;5.196;2024-01-30T12:33:29;7.28;;;2.10;;
84946;SDS011;75241;51.692;5.196;2024-01-30T12:35:56;6.40;;;1.83;;
84946;SDS011;75241;51.692;5.196;2024-01-30T12:38:22;8.02;;;1.73;;
84946;SDS011;75241;51.692;5.196;2024-01-30T12:40:48;1.95;;;0.90;;
84946;SDS011;75241;51.692;5.196;2024-01-30T12:43:15;2.83;;;0.93;;
84946;SDS011;75241;51.692;5.196;2024-01-30T12:50:32;1.85;;;0.80;;
84946;SDS011;75241;51.692;5.196;2024-01-30T12:52:57;5.90;;;1.40;;
84946;SDS011;75241;51.692;5.196;2024-01-30T12:55:23;4.97;;;1.10;;
84946;SDS011;75241;51.692;5.196;2024-01-30T12:57:49;4.40;;;1.00;;
84946;SDS011;75241;51.692;5.196;2024-01-30T13:00:15;3.15;;;0.63;;
84946;SDS011;75241;51.692;5.196;2024-01-30T13:02:42;1.65;;;0.68;;
84946;SDS011;75241;51.692;5.196;2024-01-30T13:05:10;1.83;;;0.60;;
84946;SDS011;75241;51.692;5.196;2024-01-30T13:07:35;2.35;;;0.95;;
84946;SDS011;75241;51.692;5.196;2024-01-30T13:10:01;2.25;;;0.75;;
84946;SDS011;75241;51.692;5.196;2024-01-30T13:12:28;2.47;;;0.90;;
84946;SDS011;75241;51.692;5.196;2024-01-30T13:14:54;5.65;;;0.85;;
84946;SDS011;75241;51.692;5.196;2024-01-30T13:17:19;1.65;;;0.73;;
84946;SDS011;75241;51.692;5.196;2024-01-30T13:19:45;5.75;;;2.38;;
84946;SDS011;75241;51.692;5.196;2024-01-30T13:22:10;6.03;;;3.58;;
84946;SDS011;75241;51.692;5.196;2024-01-30T13:24:36;13.63;;;3.55;;
84946;SDS011;75241;51.692;5.196;2024-01-30T13:27:01;6.63;;;4.03;;
84946;SDS011;75241;51.692;5.196;2024-01-30T13:29:27;11.48;;;3.60;;
84946;SDS011;75241;51.692;5.196;2024-01-30T13:31:52;6.20;;;3.80;;
84946;SDS011;75241;51.692;5.196;2024-01-30T13:34:18;7.82;;;3.45;;
84946;SDS011;75241;51.692;5.196;2024-01-30T13:36:43;13.25;;;4.45;;
84946;SDS011;75241;51.692;5.196;2024-01-30T13:39:09;6.80;;;3.78;;
84946;SDS011;75241;51.692;5.196;2024-01-30T13:41:35;7.60;;;3.55;;
84946;SDS011;75241;51.692;5.196;2024-01-30T13:44:01;10.40;;;4.60;;
84946;SDS011;75241;51.692;5.196;2024-01-30T13:46:28;6.88;;;3.97;;
84946;SDS011;75241;51.692;5.196;2024-01-30T13:48:54;8.77;;;4.20;;
84946;SDS011;75241;51.692;5.196;2024-01-30T13:51:19;7.55;;;4.80;;
84946;SDS011;75241;51.692;5.196;2024-01-30T13:53:45;13.88;;;5.88;;
84946;SDS011;75241;51.692;5.196;2024-01-30T13:56:10;13.70;;;5.50;;
84946;SDS011;75241;51.692;5.196;2024-01-30T13:58:36;9.02;;;5.32;;
84946;SDS011;75241;51.692;5.196;2024-01-30T14:01:02;10.63;;;5.40;;
84946;SDS011;75241;51.692;5.196;2024-01-30T14:03:27;9.77;;;4.03;;
84946;SDS011;75241;51.692;5.196;2024-01-30T14:05:53;8.15;;;4.45;;
84946;SDS011;75241;51.692;5.196;2024-01-30T14:08:19;10.75;;;4.40;;
84946;SDS011;75241;51.692;5.196;2024-01-30T14:10:46;4.35;;;2.90;;
84946;SDS011;75241;51.692;5.196;2024-01-30T14:13:12;9.10;;;3.67;;
84946;SDS011;75241;51.692;5.196;2024-01-30T14:15:37;8.15;;;3.25;;
84946;SDS011;75241;51.692;5.196;2024-01-30T14:18:03;6.75;;;3.38;;
84946;SDS011;75241;51.692;5.196;2024-01-30T14:20:30;8.43;;;3.40;;
84946;SDS011;75241;51.692;5.196;2024-01-30T14:22:56;5.75;;;3.10;;
84946;SDS011;75241;51.692;5.196;2024-01-30T14:25:22;7.25;;;3.35;;
84946;SDS011;75241;51.692;5.196;2024-01-30T14:27:47;8.60;;;3.03;;
84946;SDS011;75241;51.692;5.196;2024-01-30T14:30:12;8.32;;;3.20;;
84946;SDS011;75241;51.692;5.196;2024-01-30T14:32:38;7.80;;;3.42;;
84946;SDS011;75241;51.692;5.196;2024-01-30T14:35:05;4.22;;;2.97;;
84946;SDS011;75241;51.692;5.196;2024-01-30T14:37:31;6.00;;;3.03;;
84946;SDS011;75241;51.692;5.196;2024-01-30T14:39:56;7.00;;;3.70;;
84946;SDS011;75241;51.692;5.196;2024-01-30T14:42:21;7.93;;;2.63;;
84946;SDS011;75241;51.692;5.196;2024-01-30T14:44:47;5.47;;;2.58;;
84946;SDS011;75241;51.692;5.196;2024-01-30T14:47:14;5.75;;;2.28;;
84946;SDS011;75241;51.692;5.196;2024-01-30T14:49:39;6.13;;;2.67;;